»·PEaware :: JBU180 KLGB-KLAS

JBU180 :: KLGB-KLAS

FLIGHT INFORMATION

Flight Status: Arrived
Operator:
JetBlue Airways
More flights by this operator :: More flights under this callsign
Pilot: Craig H. (6968)
Aircraft: AIRBUS A319
(A319)
More flights by this aircraft type
Origin: KLGB Long Beach
United States
Destination: KLAS McCarran Intl
United States
More flights between these airports :: More routes between these airports
Route: ZOOMM2 MISEN KEPEC6
File this flight plan on PilotEdge
Remarks:
Altitude:
(Current/Filed)
29,000ft
Speed:
(Current/Filed)
464kts
Departed: 11-Sep-19 12:25 PM
Arrived: 11-Sep-19 01:08 PM
Distance/Time
Traveled:
201nm/0:43
Distance/Time
To Go:
Arrived

Flight Plot

Page will automatically refresh every two minutes.

Flight plan parsing failed; only flown route is shown


Map Options




Map Legend


Flown Route
Filed Route
Departure Airport
Arrival Airport
Navaid (VOR, NDB)
Fix

Horizontal Profiles

Position Reports

Time Latitude Longitude Heading Altitude Ground
Speed
11-Sep-19 12:00 33.818122 -118.146138 90 69ft 0kts
11-Sep-19 12:01 33.818122 -118.146138 90 69ft 0kts
11-Sep-19 12:02 33.818122 -118.146138 90 69ft 0kts
11-Sep-19 12:03 33.818122 -118.146138 90 69ft 0kts
11-Sep-19 12:04 33.818122 -118.146138 90 69ft 0kts
11-Sep-19 12:05 33.818122 -118.146138 90 69ft 0kts
11-Sep-19 12:06 33.818122 -118.146138 90 69ft 0kts
11-Sep-19 12:07 33.818122 -118.146138 90 69ft 0kts
11-Sep-19 12:08 33.818122 -118.146138 90 69ft 0kts
11-Sep-19 12:09 33.818122 -118.146138 90 69ft 0kts
11-Sep-19 12:10 33.818122 -118.146138 90 69ft 0kts
11-Sep-19 12:11 33.818122 -118.146138 90 69ft 0kts
11-Sep-19 12:12 33.818122 -118.146138 90 69ft 0kts
11-Sep-19 12:13 33.818122 -118.146138 90 69ft 0kts
11-Sep-19 12:14 33.818122 -118.146254 89 69ft 2kts
11-Sep-19 12:15 33.818175 -118.146952 142 69ft 2kts
11-Sep-19 12:16 33.818766 -118.146997 179 69ft 2kts
11-Sep-19 12:17 33.819001 -118.146997 179 69ft 0kts
11-Sep-19 12:18 33.819001 -118.146997 179 69ft 0kts
11-Sep-19 12:19 33.817341 -118.147005 180 69ft 18kts
11-Sep-19 12:20 33.812936 -118.143602 135 69ft 21kts
11-Sep-19 12:21 33.811474 -118.141864 131 69ft 22kts
11-Sep-19 12:22 33.807879 -118.137576 159 69ft 11kts
11-Sep-19 12:23 33.807160 -118.138031 234 69ft 9kts
11-Sep-19 12:24 33.825007 -118.160052 314 494ft 173kts
11-Sep-19 12:25 33.832320 -118.210739 223 3042ft 196kts
11-Sep-19 12:26 33.770336 -118.231498 191 5398ft 268kts
11-Sep-19 12:27 33.694313 -118.248270 168 8474ft 288kts
11-Sep-19 12:28 33.660106 -118.173761 63 11104ft 314kts
11-Sep-19 12:29 33.731969 -118.101257 33 13261ft 359kts
11-Sep-19 12:30 33.814307 -118.027782 34 16034ft 379kts
11-Sep-19 12:31 33.902236 -117.948569 34 17477ft 424kts
11-Sep-19 12:32 33.998803 -117.860318 34 19660ft 443kts
11-Sep-19 12:33 34.096008 -117.765036 42 21756ft 461kts
11-Sep-19 12:34 34.179739 -117.644222 48 23646ft 476kts
11-Sep-19 12:35 34.263962 -117.518602 47 24735ft 481kts
11-Sep-19 12:36 34.343366 -117.400060 47 26046ft 441kts
11-Sep-19 12:37 34.421936 -117.282200 48 27424ft 456kts
11-Sep-19 12:38 34.502311 -117.161152 48 28827ft 467kts
11-Sep-19 12:39 34.559673 -117.075194 47 29132ft 468kts
11-Sep-19 12:40 34.646943 -116.948629 47 29144ft 508kts
11-Sep-19 12:41 34.738916 -116.814066 47 29121ft 517kts
11-Sep-19 12:42 34.831221 -116.679642 44 29096ft 517kts
11-Sep-19 12:43 34.937922 -116.563148 34 28524ft 510kts
11-Sep-19 12:44 35.048071 -116.456815 34 26592ft 501kts
11-Sep-19 12:45 35.148731 -116.346597 41 24753ft 472kts
11-Sep-19 12:46 35.237734 -116.234457 42 23040ft 449kts
11-Sep-19 12:47 35.323246 -116.126829 42 21478ft 434kts
11-Sep-19 12:48 35.406043 -116.022370 42 19892ft 423kts
11-Sep-19 12:49 35.487194 -115.919694 42 17872ft 417kts
11-Sep-19 12:50 35.567075 -115.818276 43 15851ft 409kts
11-Sep-19 12:51 35.645358 -115.718547 44 13801ft 399kts
11-Sep-19 12:52 35.722691 -115.619725 44 13023ft 394kts
11-Sep-19 12:53 35.812180 -115.543283 29 12203ft 395kts
11-Sep-19 12:54 35.905236 -115.472296 30 11138ft 389kts
11-Sep-19 12:55 35.996922 -115.401754 30 11031ft 387kts
11-Sep-19 12:56 36.028089 -115.287066 101 10092ft 361kts
11-Sep-19 12:57 36.016525 -115.176581 94 8840ft 290kts
11-Sep-19 12:58 36.009683 -115.075830 94 7341ft 288kts
11-Sep-19 12:59 36.003859 -114.977459 94 6028ft 282kts
11-Sep-19 13:00 36.015113 -114.888882 47 5364ft 246kts
11-Sep-19 13:01 36.067044 -114.881753 302 5171ft 181kts
11-Sep-19 13:02 36.074979 -114.935438 269 4790ft 150kts
11-Sep-19 13:03 36.073369 -114.986995 269 4290ft 149kts
11-Sep-19 13:04 36.074042 -115.037990 270 3587ft 147kts
11-Sep-19 13:05 36.073778 -115.088400 269 2831ft 146kts
11-Sep-19 13:06 36.073645 -115.137747 270 2190ft 116kts
11-Sep-19 13:07 36.074723 -115.150554 300 2190ft 0kts
11-Sep-19 13:08 36.075148 -115.151145 321 2190ft 14kts
11-Sep-19 13:09 36.078698 -115.149885 95 2190ft 18kts
11-Sep-19 13:10 36.078248 -115.143097 92 2190ft 21kts
11-Sep-19 13:11 36.078269 -115.135510 91 2190ft 22kts
11-Sep-19 13:12 36.082556 -115.132921 0 2190ft 19kts
11-Sep-19 13:13 36.085332 -115.135078 0 2190ft 1kts
11-Sep-19 13:14 36.085353 -115.135078 0 2190ft 0kts
11-Sep-19 13:15 36.085353 -115.135078 0 2190ft 0kts
11-Sep-19 13:16 36.085353 -115.135078 0 2190ft 0kts
11-Sep-19 13:17 36.085353 -115.135078 0 2190ft 0kts
11-Sep-19 13:18 36.085353 -115.135078 0 2190ft 0kts
11-Sep-19 13:19 36.085353 -115.135078 0 2190ft 0kts

Navigation Log

Ident Type
Flight plan parsing failed, navigation log unavailable